createdAt,value
2022-10-15T00:02:20.091Z,69.02
2022-10-15T00:07:23.641Z,69.04
2022-10-15T00:12:27.378Z,69.18
2022-10-15T00:17:31.123Z,69.42
2022-10-15T00:22:34.375Z,69.32
2022-10-15T00:27:51.398Z,69.32
2022-10-15T00:32:55.175Z,69.56
2022-10-15T00:37:59.153Z,69.88
2022-10-15T00:43:03.065Z,70.14
2022-10-15T00:48:10.515Z,70.24
2022-10-15T00:53:17.516Z,70.31
2022-10-15T00:58:23.322Z,70.45
2022-10-15T01:03:38.712Z,70.90
2022-10-15T01:08:42.663Z,70.85
2022-10-15T01:14:34.699Z,70.84
2022-10-15T01:19:38.068Z,70.92
2022-10-15T01:25:34.219Z,70.99
2022-10-15T01:30:56.324Z,71.31
2022-10-15T01:36:33.314Z,71.15
2022-10-15T01:41:56.788Z,71.37
2022-10-15T01:47:19.762Z,71.43
2022-10-15T01:57:36.665Z,71.62
2022-10-15T02:02:42.640Z,71.53
2022-10-15T02:08:20.232Z,71.30
2022-10-15T02:13:57.526Z,71.17
2022-10-15T02:19:06.899Z,71.02
2022-10-15T02:24:25.786Z,70.82
2022-10-15T02:29:44.836Z,70.80
2022-10-15T02:34:54.662Z,70.46
2022-10-15T02:39:58.087Z,70.42
2022-10-15T02:45:01.843Z,70.35
2022-10-15T02:50:06.586Z,70.27
2022-10-15T02:55:10.318Z,70.28
2022-10-15T03:00:14.536Z,70.22
2022-10-15T03:05:18.263Z,70.06
2022-10-15T03:10:46.854Z,69.94
2022-10-15T03:15:50.743Z,70.02
2022-10-15T03:20:56.051Z,69.88
2022-10-15T03:25:59.739Z,69.89
2022-10-15T03:31:03.545Z,69.79
2022-10-15T03:36:07.370Z,69.68
2022-10-15T03:41:11.992Z,69.72
2022-10-15T03:46:18.990Z,69.71
2022-10-15T03:51:51.120Z,69.47
2022-10-15T03:56:56.861Z,69.51
2022-10-15T04:02:06.416Z,69.38
2022-10-15T04:07:11.133Z,69.54
2022-10-15T04:12:15.408Z,69.34
2022-10-15T04:17:18.893Z,69.18
2022-10-15T04:22:24.165Z,69.33
2022-10-15T04:27:48.363Z,69.25
2022-10-15T04:32:55.103Z,69.10
2022-10-15T04:37:59.096Z,69.03
2022-10-15T04:43:03.556Z,68.82
2022-10-15T04:48:07.162Z,68.94
2022-10-15T04:53:11.703Z,69.12
2022-10-15T04:58:16.998Z,68.93
2022-10-15T05:03:20.691Z,68.98
2022-10-15T05:08:31.675Z,68.77
2022-10-15T05:13:58.364Z,68.68
2022-10-15T05:19:05.812Z,68.33
2022-10-15T05:24:10.766Z,67.68
2022-10-15T05:29:46.744Z,67.32
2022-10-15T05:34:51.485Z,67.42
2022-10-15T05:39:55.409Z,67.34
2022-10-15T05:44:59.375Z,67.15
2022-10-15T05:50:02.888Z,67.16
2022-10-15T05:55:16.183Z,66.97
2022-10-15T06:00:19.860Z,66.97
2022-10-15T06:05:29.188Z,66.40
2022-10-15T06:10:36.087Z,66.08
2022-10-15T06:15:41.316Z,65.79
2022-10-15T06:20:54.340Z,65.50
2022-10-15T06:26:05.884Z,65.42
2022-10-15T06:31:09.466Z,65.03
2022-10-15T06:36:12.950Z,64.68
2022-10-15T06:41:16.571Z,64.50
2022-10-15T06:46:20.220Z,63.93
2022-10-15T06:51:23.867Z,63.85
2022-10-15T06:56:27.225Z,62.90
2022-10-15T07:01:30.426Z,62.29
2022-10-15T07:06:36.034Z,62.19
2022-10-15T07:11:42.979Z,61.60
2022-10-15T07:16:46.480Z,61.56
2022-10-15T07:21:50.675Z,60.98
2022-10-15T07:26:54.492Z,61.11
2022-10-15T07:31:58.417Z,60.63
2022-10-15T07:37:02.475Z,60.96
2022-10-15T07:42:05.881Z,60.55
2022-10-15T07:47:09.288Z,60.75
2022-10-15T07:52:12.787Z,60.87
2022-10-15T07:57:18.061Z,60.97
2022-10-15T08:02:22.782Z,61.02
2022-10-15T08:07:26.323Z,61.42
2022-10-15T08:12:29.573Z,61.69
2022-10-15T08:17:32.972Z,61.53
2022-10-15T08:22:36.949Z,61.04
2022-10-15T08:27:40.582Z,60.89
2022-10-15T08:32:43.977Z,61.01
2022-10-15T08:37:54.840Z,61.03
2022-10-15T08:42:59.874Z,61.06
2022-10-15T08:48:23.882Z,60.81
2022-10-15T08:53:30.571Z,60.87
2022-10-15T08:58:56.689Z,61.03
2022-10-15T09:04:18.325Z,61.30
2022-10-15T09:09:48.167Z,61.09
2022-10-15T09:14:53.798Z,61.33
2022-10-15T09:20:02.729Z,61.00
2022-10-15T09:25:18.735Z,60.65
2022-10-15T09:30:38.040Z,60.52
2022-10-15T09:35:54.162Z,60.55
2022-10-15T09:41:06.243Z,60.73
2022-10-15T09:46:11.292Z,60.86
2022-10-15T09:51:45.357Z,60.50
2022-10-15T09:56:55.747Z,60.63
2022-10-15T10:02:19.677Z,60.40
2022-10-15T10:07:37.802Z,60.29
2022-10-15T10:12:46.110Z,60.62
2022-10-15T10:17:55.015Z,60.74
2022-10-15T10:23:01.040Z,60.55
2022-10-15T10:28:11.751Z,60.71
2022-10-15T10:33:25.467Z,61.12
2022-10-15T10:38:37.214Z,61.03
2022-10-15T10:43:54.397Z,60.97
2022-10-15T10:48:57.777Z,60.68
2022-10-15T10:54:03.594Z,60.16
2022-10-15T10:59:35.960Z,60.15
2022-10-15T11:04:40.481Z,60.17
2022-10-15T11:09:59.002Z,59.82
2022-10-15T11:15:25.563Z,59.92
2022-10-15T11:20:49.918Z,60.11
2022-10-15T11:26:04.610Z,59.93
2022-10-15T11:31:20.761Z,59.72
2022-10-15T11:36:32.796Z,59.54
2022-10-15T11:42:03.683Z,59.60
2022-10-15T11:47:25.732Z,59.12
2022-10-15T11:52:48.149Z,59.44
2022-10-15T11:57:58.188Z,59.63
2022-10-15T12:03:15.140Z,59.30
2022-10-15T12:08:20.192Z,59.12
2022-10-15T12:13:26.831Z,59.11
2022-10-15T12:18:39.797Z,58.92
2022-10-15T12:23:43.544Z,58.96
2022-10-15T12:28:53.905Z,59.15
2022-10-15T12:33:58.127Z,58.87
2022-10-15T12:39:28.064Z,58.76
2022-10-15T12:44:49.813Z,58.80
2022-10-15T12:50:06.367Z,58.74
2022-10-15T12:55:33.327Z,58.59
2022-10-15T13:00:39.894Z,58.92
2022-10-15T13:05:47.910Z,59.07
2022-10-15T13:10:59.460Z,58.99
2022-10-15T13:16:09.513Z,58.94
2022-10-15T13:21:14.012Z,58.91
2022-10-15T13:26:27.646Z,59.10
2022-10-15T13:31:35.339Z,58.55
2022-10-15T13:36:39.468Z,58.73
2022-10-15T13:41:43.640Z,59.07
2022-10-15T13:46:47.542Z,58.80
2022-10-15T13:51:53.991Z,59.09
2022-10-15T13:57:00.007Z,59.35
2022-10-15T14:02:03.751Z,59.08
2022-10-15T14:07:24.921Z,59.33
2022-10-15T14:12:28.516Z,59.46
2022-10-15T14:17:35.274Z,59.82
2022-10-15T14:22:39.119Z,59.73
2022-10-15T14:27:48.113Z,59.86
2022-10-15T14:32:51.893Z,60.24
2022-10-15T14:37:59.993Z,60.00
2022-10-15T14:43:15.046Z,60.33
2022-10-15T14:48:39.719Z,60.40
2022-10-15T14:53:47.159Z,60.53
2022-10-15T14:58:54.244Z,61.03
2022-10-15T15:03:57.603Z,61.37
2022-10-15T15:09:00.887Z,61.44
2022-10-15T15:14:04.514Z,61.68
2022-10-15T15:19:09.244Z,61.84
2022-10-15T15:24:12.750Z,62.16
2022-10-15T15:29:16.496Z,62.25
2022-10-15T15:34:20.585Z,62.43
2022-10-15T15:39:24.193Z,62.59
2022-10-15T15:44:27.499Z,62.80
2022-10-15T15:49:30.779Z,62.88
2022-10-15T15:54:37.646Z,63.14
2022-10-15T15:59:44.570Z,63.23
2022-10-15T16:04:47.951Z,63.37
2022-10-15T16:09:51.273Z,63.55
2022-10-15T16:14:55.037Z,63.84
2022-10-15T16:19:58.578Z,63.92
2022-10-15T16:25:02.510Z,64.07
2022-10-15T16:30:07.047Z,64.26
2022-10-15T16:35:10.743Z,64.47
2022-10-15T16:40:16.234Z,64.63
2022-10-15T16:45:19.629Z,64.71
2022-10-15T16:50:24.853Z,64.92
2022-10-15T16:55:31.798Z,64.91
2022-10-15T17:00:35.830Z,64.99
2022-10-15T17:05:39.311Z,65.10
2022-10-15T17:10:43.083Z,65.34
2022-10-15T17:15:48.340Z,65.41
2022-10-15T17:20:51.951Z,65.50
2022-10-15T17:26:04.287Z,65.82
2022-10-15T17:31:13.671Z,66.01
2022-10-15T17:36:21.833Z,66.11
2022-10-15T17:41:28.916Z,66.27
2022-10-15T17:46:33.706Z,66.45
2022-10-15T17:51:39.667Z,66.64
2022-10-15T17:56:43.283Z,66.84
2022-10-15T18:01:58.461Z,67.15
2022-10-15T18:07:02.936Z,67.27
2022-10-15T18:12:06.157Z,67.50
2022-10-15T18:17:09.571Z,67.66
2022-10-15T18:22:13.041Z,67.90
2022-10-15T18:27:17.141Z,68.13
2022-10-15T18:32:21.485Z,68.54
2022-10-15T18:37:25.388Z,68.43
2022-10-15T18:42:28.907Z,68.68
2022-10-15T18:47:32.044Z,68.71
2022-10-15T18:52:39.827Z,68.92
2022-10-15T18:57:48.008Z,69.16
2022-10-15T19:02:51.755Z,69.46
2022-10-15T19:07:55.075Z,69.54
2022-10-15T19:12:58.942Z,69.82
2022-10-15T19:18:04.108Z,70.04
2022-10-15T19:23:07.857Z,70.01
2022-10-15T19:28:11.328Z,70.26
2022-10-15T19:33:17.756Z,70.34
2022-10-15T19:38:22.615Z,70.47
2022-10-15T19:43:26.029Z,70.53
2022-10-15T19:48:29.523Z,70.49
2022-10-15T19:53:33.569Z,71.11
2022-10-15T19:58:39.649Z,70.89
2022-10-15T20:03:43.107Z,70.90
2022-10-15T20:08:47.090Z,71.21
2022-10-15T20:13:51.099Z,71.07
2022-10-15T20:18:54.451Z,71.14
2022-10-15T20:23:57.678Z,71.26
2022-10-15T20:29:01.419Z,71.37
2022-10-15T20:34:04.765Z,71.58
2022-10-15T20:39:08.297Z,71.67
2022-10-15T20:44:12.388Z,71.98
2022-10-15T20:49:21.716Z,71.66
2022-10-15T20:54:25.089Z,71.74
2022-10-15T20:59:30.349Z,71.63
2022-10-15T21:04:34.213Z,71.94
2022-10-15T21:09:38.850Z,71.53
2022-10-15T21:14:42.324Z,71.44
2022-10-15T21:19:51.815Z,71.49
2022-10-15T21:24:57.015Z,71.64
2022-10-15T21:30:00.560Z,71.64
2022-10-15T21:35:05.792Z,71.31
2022-10-15T21:40:11.526Z,70.97
2022-10-15T21:45:15.217Z,70.82
2022-10-15T21:50:18.470Z,70.58
2022-10-15T21:55:21.845Z,70.54
2022-10-15T22:00:25.844Z,70.46
2022-10-15T22:05:29.389Z,70.22
2022-10-15T22:10:33.608Z,70.28
2022-10-15T22:15:38.285Z,70.06
2022-10-15T22:26:01.473Z,69.65
2022-10-15T22:31:10.613Z,69.59
2022-10-15T22:36:17.845Z,69.29
2022-10-15T22:41:23.434Z,69.27
2022-10-15T22:46:38.263Z,69.14
2022-10-15T22:51:48.558Z,68.94
2022-10-15T22:56:52.178Z,68.77
2022-10-15T23:01:56.281Z,68.53
2022-10-15T23:06:59.606Z,68.30
2022-10-15T23:12:03.210Z,68.04
2022-10-15T23:17:06.482Z,67.74
2022-10-15T23:22:12.618Z,67.52
2022-10-15T23:27:16.571Z,67.25
2022-10-15T23:32:22.714Z,67.24
2022-10-15T23:37:26.653Z,67.05
2022-10-15T23:42:30.686Z,67.15
2022-10-15T23:47:35.936Z,66.81
2022-10-15T23:52:39.272Z,66.79
2022-10-15T23:57:42.663Z,66.30
